Time;durP1;ratioP1;P1;durP2;ratioP2;P2;SDS_P1;SDS_P2;PMS_P1;PMS_P2;Temp;Humidity;BMP_temperature;BMP_pressure;BME280_temperature;BME280_humidity;BME280_pressure;Samples;Min_cycle;Max_cycle;Signal;HPM_P1;HPM_P2
2021/07/25 00:00:31;;;;;;;15.13;10.10;;;;;;;;;;5092274;28;20058;-49
2021/07/25 00:02:57;;;;;;;12.90;9.30;;;;;;;;;;5092156;28;20028;-53
2021/07/25 00:05:23;;;;;;;13.57;9.30;;;;;;;;;;5092159;28;20114;-51
2021/07/25 00:07:49;;;;;;;14.38;9.68;;;;;;;;;;5066312;28;20028;-49
2021/07/25 00:10:15;;;;;;;12.70;9.30;;;;;;;;;;5086537;28;20055;-50
2021/07/25 00:12:41;;;;;;;15.88;9.18;;;;;;;;;;5090436;28;20107;-47
2021/07/25 00:15:07;;;;;;;14.40;9.20;;;;;;;;;;5091322;28;20024;-49
2021/07/25 00:17:33;;;;;;;13.82;9.10;;;;;;;;;;5089543;28;20111;-48
2021/07/25 00:19:59;;;;;;;11.68;9.20;;;;;;;;;;5083834;28;20417;-48
2021/07/25 00:22:25;;;;;;;16.00;9.93;;;;;;;;;;5066451;28;20033;-47
2021/07/25 00:25:02;;;;;;;12.93;9.10;;;;;;;;;;5057084;28;20147;-47
2021/07/25 00:27:29;;;;;;;12.80;8.82;;;;;;;;;;5065978;28;20032;-47
2021/07/25 00:29:55;;;;;;;12.73;8.85;;;;;;;;;;5091471;28;20028;-52
2021/07/25 00:32:21;;;;;;;19.05;9.60;;;;;;;;;;5092345;28;20035;-48
2021/07/25 00:34:48;;;;;;;12.60;9.38;;;;;;;;;;5067679;28;20013;-47
2021/07/25 00:37:14;;;;;;;12.40;9.10;;;;;;;;;;5089766;28;20086;-52
2021/07/25 00:39:40;;;;;;;14.45;9.75;;;;;;;;;;5091699;28;20028;-49
2021/07/25 00:42:06;;;;;;;13.13;8.95;;;;;;;;;;5084509;28;20020;-51
2021/07/25 00:44:32;;;;;;;14.48;9.63;;;;;;;;;;5084368;28;20081;-47
2021/07/25 00:47:02;;;;;;;16.85;10.00;;;;;;;;;;5084276;28;20099;-50
2021/07/25 00:49:29;;;;;;;13.07;8.70;;;;;;;;;;5091150;28;20058;-49
2021/07/25 00:51:55;;;;;;;13.85;9.93;;;;;;;;;;5078797;28;20028;-47
2021/07/25 00:54:21;;;;;;;14.60;9.45;;;;;;;;;;5075740;28;20041;-50
2021/07/25 00:56:47;;;;;;;13.77;9.98;;;;;;;;;;5054410;28;20162;-47
2021/07/25 00:59:13;;;;;;;14.20;9.38;;;;;;;;;;5079462;28;20055;-47
2021/07/25 01:01:39;;;;;;;15.52;10.02;;;;;;;;;;5091636;28;20052;-47
2021/07/25 01:04:32;;;;;;;13.75;9.90;;;;;;;;;;5091516;28;20036;-47
2021/07/25 01:07:03;;;;;;;13.13;9.57;;;;;;;;;;5088175;28;20030;-48
2021/07/25 01:09:48;;;;;;;14.60;9.73;;;;;;;;;;5082444;28;20052;-48
2021/07/25 01:12:43;;;;;;;18.20;9.60;;;;;;;;;;5058315;28;20483;-49
2021/07/25 01:15:11;;;;;;;13.23;9.60;;;;;;;;;;5086859;28;20059;-47
2021/07/25 01:17:37;;;;;;;13.15;9.27;;;;;;;;;;5091123;28;20645;-50
2021/07/25 01:20:07;;;;;;;13.98;9.63;;;;;;;;;;5084675;28;20036;-47
2021/07/25 01:22:35;;;;;;;17.92;9.18;;;;;;;;;;5091221;28;20456;-49
2021/07/25 01:25:01;;;;;;;13.05;9.02;;;;;;;;;;5069380;28;20025;-47
2021/07/25 01:27:30;;;;;;;16.35;8.85;;;;;;;;;;5067153;28;20024;-51
2021/07/25 01:29:58;;;;;;;13.68;8.60;;;;;;;;;;5094568;28;20527;-49
2021/07/25 01:32:25;;;;;;;13.63;9.10;;;;;;;;;;5095318;28;20099;-50
2021/07/25 01:34:52;;;;;;;12.55;8.93;;;;;;;;;;5069953;28;20346;-48
2021/07/25 01:37:18;;;;;;;13.50;8.98;;;;;;;;;;5084403;28;20089;-48
2021/07/25 01:39:44;;;;;;;14.07;9.43;;;;;;;;;;5094723;28;20111;-48
2021/07/25 01:42:10;;;;;;;17.15;9.18;;;;;;;;;;5094779;28;20067;-49
2021/07/25 01:44:36;;;;;;;13.68;9.48;;;;;;;;;;5094964;28;20028;-49
2021/07/25 01:47:02;;;;;;;13.20;8.98;;;;;;;;;;5070781;28;20085;-48
2021/07/25 01:49:28;;;;;;;13.32;10.27;;;;;;;;;;5088622;28;20039;-47
2021/07/25 01:51:54;;;;;;;13.55;8.63;;;;;;;;;;5093263;28;20020;-47
2021/07/25 01:54:20;;;;;;;14.23;9.45;;;;;;;;;;5084071;28;20039;-48
2021/07/25 01:56:46;;;;;;;12.85;9.02;;;;;;;;;;5093662;28;20028;-48
2021/07/25 01:59:12;;;;;;;11.75;9.27;;;;;;;;;;5081191;28;20088;-49
2021/07/25 02:01:38;;;;;;;14.35;9.05;;;;;;;;;;5094470;28;20027;-48
2021/07/25 02:04:07;;;;;;;12.65;9.30;;;;;;;;;;5082169;28;20028;-53
2021/07/25 02:06:35;;;;;;;15.55;9.73;;;;;;;;;;5094673;28;20448;-50
2021/07/25 02:09:01;;;;;;;17.23;9.85;;;;;;;;;;5094034;28;20055;-50
2021/07/25 02:11:27;;;;;;;13.13;9.13;;;;;;;;;;5086594;28;20468;-53
2021/07/25 02:13:53;;;;;;;14.98;9.45;;;;;;;;;;5086494;28;20035;-47
2021/07/25 02:16:19;;;;;;;13.13;8.98;;;;;;;;;;5081772;28;20032;-49
2021/07/25 02:18:45;;;;;;;11.35;8.93;;;;;;;;;;5093528;28;20039;-49
2021/07/25 02:21:11;;;;;;;12.68;8.73;;;;;;;;;;5094421;28;20077;-48
2021/07/25 02:23:37;;;;;;;12.10;8.30;;;;;;;;;;5093994;28;20036;-48
2021/07/25 02:26:03;;;;;;;15.75;9.68;;;;;;;;;;5070804;28;20028;-48
2021/07/25 02:28:29;;;;;;;14.20;9.90;;;;;;;;;;5093475;28;20032;-48
2021/07/25 02:30:55;;;;;;;14.85;9.43;;;;;;;;;;5094040;28;20020;-47
2021/07/25 02:33:21;;;;;;;13.68;9.75;;;;;;;;;;5093329;28;20434;-48
2021/07/25 02:35:47;;;;;;;11.65;9.35;;;;;;;;;;5067788;28;20031;-47
2021/07/25 02:38:13;;;;;;;15.05;9.35;;;;;;;;;;5092687;28;20021;-49
2021/07/25 02:40:39;;;;;;;15.48;9.75;;;;;;;;;;5088848;28;20043;-49
2021/07/25 02:43:05;;;;;;;13.23;8.80;;;;;;;;;;5093660;28;20525;-49
2021/07/25 02:45:31;;;;;;;14.57;10.15;;;;;;;;;;5090226;28;20024;-51
2021/07/25 02:47:57;;;;;;;13.93;9.55;;;;;;;;;;5054007;28;20031;-52
2021/07/25 02:50:23;;;;;;;15.73;10.85;;;;;;;;;;5093847;28;20024;-47
2021/07/25 02:52:49;;;;;;;13.43;9.40;;;;;;;;;;5075290;28;20595;-52
2021/07/25 02:55:15;;;;;;;14.88;10.45;;;;;;;;;;5081973;28;20028;-47
2021/07/25 02:57:41;;;;;;;16.02;9.90;;;;;;;;;;5092284;28;20482;-48
2021/07/25 03:00:08;;;;;;;16.13;11.00;;;;;;;;;;5067661;28;20025;-47
2021/07/25 03:02:36;;;;;;;17.33;10.73;;;;;;;;;;5081162;28;20162;-47
2021/07/25 03:05:02;;;;;;;14.10;9.93;;;;;;;;;;5093703;28;20024;-47
2021/07/25 03:07:28;;;;;;;14.20;10.00;;;;;;;;;;5092244;28;20024;-49
2021/07/25 03:09:54;;;;;;;16.52;10.35;;;;;;;;;;5066286;28;20506;-47
2021/07/25 03:12:20;;;;;;;14.30;10.60;;;;;;;;;;5087881;28;20032;-48
2021/07/25 03:14:46;;;;;;;15.02;10.55;;;;;;;;;;5093075;28;20020;-53
2021/07/25 03:17:12;;;;;;;16.92;10.75;;;;;;;;;;5092835;28;20345;-51
2021/07/25 03:19:38;;;;;;;12.93;9.95;;;;;;;;;;5092741;28;20094;-49
2021/07/25 03:22:07;;;;;;;20.80;10.07;;;;;;;;;;5092914;28;20047;-49
2021/07/25 03:24:34;;;;;;;17.73;11.75;;;;;;;;;;5078545;28;20025;-50
2021/07/25 03:27:00;;;;;;;14.95;10.10;;;;;;;;;;5085105;28;20020;-49
2021/07/25 03:29:26;;;;;;;16.15;11.07;;;;;;;;;;5092678;28;20386;-48
2021/07/25 03:31:52;;;;;;;13.30;10.25;;;;;;;;;;5092292;28;20032;-50
2021/07/25 03:34:18;;;;;;;15.20;10.43;;;;;;;;;;5076719;28;20048;-48
2021/07/25 03:36:44;;;;;;;17.55;11.50;;;;;;;;;;5064952;28;20605;-49
2021/07/25 03:39:12;;;;;;;16.25;11.48;;;;;;;;;;5092399;28;20031;-49
2021/07/25 03:41:38;;;;;;;18.85;10.60;;;;;;;;;;5074870;28;20079;-47
2021/07/25 03:44:05;;;;;;;14.52;10.93;;;;;;;;;;5092603;28;20030;-49
2021/07/25 03:46:31;;;;;;;17.25;11.35;;;;;;;;;;5072152;28;20388;-47
2021/07/25 03:48:57;;;;;;;16.25;11.65;;;;;;;;;;5069880;28;20559;-48
2021/07/25 03:51:23;;;;;;;15.98;11.48;;;;;;;;;;5091752;28;20134;-51
2021/07/25 03:53:49;;;;;;;16.88;10.70;;;;;;;;;;5090256;28;20024;-48
2021/07/25 03:56:15;;;;;;;17.63;11.80;;;;;;;;;;5084186;28;20154;-53
2021/07/25 03:58:41;;;;;;;16.27;11.05;;;;;;;;;;5085354;28;20463;-48
2021/07/25 04:01:07;;;;;;;16.13;11.27;;;;;;;;;;5083472;28;20039;-49
2021/07/25 04:03:33;;;;;;;16.35;11.48;;;;;;;;;;5086903;28;20036;-50
2021/07/25 04:05:59;;;;;;;20.10;12.07;;;;;;;;;;5084494;28;20544;-47
2021/07/25 04:08:25;;;;;;;18.17;11.20;;;;;;;;;;5091915;28;20024;-47
2021/07/25 04:10:51;;;;;;;15.40;11.13;;;;;;;;;;5084894;28;20089;-48
2021/07/25 04:13:17;;;;;;;17.75;11.90;;;;;;;;;;5092290;28;20375;-47
2021/07/25 04:15:45;;;;;;;18.42;11.52;;;;;;;;;;5091838;28;20032;-48
2021/07/25 04:18:11;;;;;;;16.33;11.43;;;;;;;;;;5091800;28;20384;-49
2021/07/25 04:20:37;;;;;;;16.52;11.35;;;;;;;;;;5092264;28;20066;-48
2021/07/25 04:23:03;;;;;;;13.85;10.60;;;;;;;;;;5092277;28;20031;-47
2021/07/25 04:25:30;;;;;;;18.58;11.85;;;;;;;;;;5064885;28;20024;-48
2021/07/25 04:27:57;;;;;;;22.88;11.65;;;;;;;;;;5072054;28;20170;-53
2021/07/25 04:30:24;;;;;;;14.77;10.70;;;;;;;;;;5090137;28;20032;-50
2021/07/25 04:32:50;;;;;;;16.00;11.65;;;;;;;;;;5073298;28;20028;-52
2021/07/25 04:35:17;;;;;;;15.73;11.35;;;;;;;;;;5064945;28;20104;-49
2021/07/25 04:37:48;;;;;;;17.38;12.40;;;;;;;;;;5091738;28;20755;-48
2021/07/25 04:40:15;;;;;;;17.65;12.55;;;;;;;;;;5078219;28;20564;-47
2021/07/25 04:42:43;;;;;;;17.38;12.35;;;;;;;;;;5091805;28;20114;-50
2021/07/25 04:45:09;;;;;;;18.20;12.20;;;;;;;;;;5091579;28;20020;-48
2021/07/25 04:47:36;;;;;;;18.10;11.25;;;;;;;;;;5053705;28;20021;-48
2021/07/25 04:50:10;;;;;;;15.73;11.38;;;;;;;;;;5087461;28;20028;-48
2021/07/25 04:52:38;;;;;;;16.52;10.52;;;;;;;;;;5091958;28;20024;-47
2021/07/25 04:55:05;;;;;;;18.15;12.82;;;;;;;;;;5079951;28;20452;-47
2021/07/25 04:57:34;;;;;;;14.43;10.88;;;;;;;;;;5091937;28;20020;-47
2021/07/25 05:00:01;;;;;;;15.48;10.55;;;;;;;;;;5072640;28;20055;-49
2021/07/25 05:02:27;;;;;;;16.02;11.18;;;;;;;;;;5094044;28;20419;-47
2021/07/25 05:04:53;;;;;;;16.23;11.52;;;;;;;;;;5082437;28;20016;-47
2021/07/25 05:07:19;;;;;;;16.08;10.95;;;;;;;;;;5082898;28;20017;-48
2021/07/25 05:09:45;;;;;;;15.98;10.93;;;;;;;;;;5093216;28;20114;-51
2021/07/25 05:12:19;;;;;;;15.50;10.57;;;;;;;;;;5088828;28;20472;-53
2021/07/25 05:14:51;;;;;;;18.77;12.18;;;;;;;;;;5095851;28;20073;-51
2021/07/25 05:17:23;;;;;;;13.52;10.15;;;;;;;;;;5091201;28;20028;-52
2021/07/25 05:19:49;;;;;;;15.27;10.88;;;;;;;;;;5082339;28;20059;-51
2021/07/25 05:22:34;;;;;;;17.45;11.00;;;;;;;;;;5093508;28;20050;-47
2021/07/25 05:25:00;;;;;;;14.95;11.23;;;;;;;;;;5082720;28;20128;-50
2021/07/25 05:27:30;;;;;;;16.00;11.05;;;;;;;;;;5086179;28;20024;-47
2021/07/25 05:29:57;;;;;;;19.77;11.38;;;;;;;;;;5095098;28;20035;-48
2021/07/25 05:32:23;;;;;;;16.00;11.20;;;;;;;;;;5094362;28;20024;-49
2021/07/25 05:34:49;;;;;;;17.20;10.13;;;;;;;;;;5055978;28;20544;-48
2021/07/25 05:37:15;;;;;;;18.08;10.68;;;;;;;;;;5093295;28;20024;-50
2021/07/25 05:39:41;;;;;;;19.40;11.13;;;;;;;;;;5094992;28;20032;-48
2021/07/25 05:42:07;;;;;;;16.50;10.07;;;;;;;;;;5094829;28;20096;-49
2021/07/25 05:44:33;;;;;;;19.30;11.05;;;;;;;;;;5083446;28;20025;-48
2021/07/25 05:46:59;;;;;;;16.33;11.43;;;;;;;;;;5065690;28;20091;-49
2021/07/25 05:49:26;;;;;;;17.70;11.50;;;;;;;;;;5079835;28;20024;-47
2021/07/25 05:51:54;;;;;;;16.67;10.50;;;;;;;;;;5094997;28;20024;-47
2021/07/25 05:54:20;;;;;;;17.85;12.35;;;;;;;;;;5089912;28;20037;-50
2021/07/25 05:56:46;;;;;;;13.88;10.10;;;;;;;;;;5094736;28;20035;-50
2021/07/25 05:59:12;;;;;;;18.00;11.15;;;;;;;;;;5094790;28;20402;-48
2021/07/25 06:01:42;;;;;;;17.05;11.25;;;;;;;;;;5090267;28;20044;-49
2021/07/25 06:04:08;;;;;;;22.23;11.55;;;;;;;;;;5094588;28;20479;-48
2021/07/25 06:06:34;;;;;;;16.35;10.70;;;;;;;;;;5084547;28;20024;-49
2021/07/25 06:09:03;;;;;;;19.00;11.35;;;;;;;;;;5074065;28;20550;-47
2021/07/25 06:11:29;;;;;;;15.30;10.90;;;;;;;;;;5083982;28;20027;-50
2021/07/25 06:13:56;;;;;;;18.65;11.05;;;;;;;;;;5082501;28;20064;-51
2021/07/25 06:16:22;;;;;;;20.65;11.65;;;;;;;;;;5094590;28;20161;-47
2021/07/25 06:18:48;;;;;;;16.08;11.00;;;;;;;;;;5094039;28;20024;-47
2021/07/25 06:21:18;;;;;;;17.27;10.63;;;;;;;;;;5085701;28;20043;-48
2021/07/25 06:23:44;;;;;;;16.83;11.30;;;;;;;;;;5068633;28;20056;-48
2021/07/25 06:26:10;;;;;;;14.30;10.32;;;;;;;;;;5088249;28;20121;-50
2021/07/25 06:28:36;;;;;;;15.95;10.85;;;;;;;;;;5088981;28;20653;-47
2021/07/25 06:31:02;;;;;;;16.35;10.80;;;;;;;;;;5094124;28;20099;-47
2021/07/25 06:33:29;;;;;;;19.27;11.13;;;;;;;;;;5084842;28;20020;-50
2021/07/25 06:35:55;;;;;;;16.40;10.77;;;;;;;;;;5068800;28;20028;-51
2021/07/25 06:38:21;;;;;;;17.52;10.55;;;;;;;;;;5079671;28;20033;-50
2021/07/25 06:40:49;;;;;;;18.55;10.38;;;;;;;;;;5084840;28;20515;-50
2021/07/25 06:43:15;;;;;;;14.77;10.63;;;;;;;;;;5093698;28;20650;-51
2021/07/25 06:45:41;;;;;;;16.67;10.23;;;;;;;;;;5087553;28;20048;-48
2021/07/25 06:48:20;;;;;;;14.77;10.07;;;;;;;;;;5071822;28;20029;-47
2021/07/25 06:50:50;;;;;;;17.75;10.50;;;;;;;;;;5083128;28;20031;-48
2021/07/25 06:53:19;;;;;;;15.63;10.90;;;;;;;;;;5091458;28;20357;-50
2021/07/25 06:55:46;;;;;;;16.17;11.30;;;;;;;;;;5081744;28;20045;-48
2021/07/25 06:58:12;;;;;;;15.65;10.40;;;;;;;;;;5090710;28;20042;-49
2021/07/25 07:00:38;;;;;;;14.88;10.18;;;;;;;;;;5080368;28;20033;-47
2021/07/25 07:03:04;;;;;;;17.15;11.35;;;;;;;;;;5092467;28;20031;-48
2021/07/25 07:05:32;;;;;;;17.58;10.00;;;;;;;;;;5093484;28;20016;-48
2021/07/25 07:07:59;;;;;;;12.15;9.95;;;;;;;;;;5093180;28;20024;-47
2021/07/25 07:10:26;;;;;;;15.77;10.65;;;;;;;;;;5078160;28;20048;-50
2021/07/25 07:12:52;;;;;;;15.23;10.48;;;;;;;;;;5092462;28;20032;-47
2021/07/25 07:15:19;;;;;;;15.75;10.02;;;;;;;;;;5093307;28;20028;-54
2021/07/25 07:17:47;;;;;;;13.15;9.68;;;;;;;;;;5086777;28;20468;-52
2021/07/25 07:20:14;;;;;;;16.88;11.48;;;;;;;;;;5086189;28;20106;-51
2021/07/25 07:22:40;;;;;;;18.65;10.10;;;;;;;;;;5093132;28;20085;-51
2021/07/25 07:25:07;;;;;;;17.92;10.57;;;;;;;;;;5092700;28;20081;-48
2021/07/25 07:27:33;;;;;;;16.55;10.63;;;;;;;;;;5093288;28;20107;-49
2021/07/25 07:30:00;;;;;;;17.23;10.18;;;;;;;;;;5081042;28;20099;-54
2021/07/25 07:32:26;;;;;;;19.15;11.35;;;;;;;;;;5067344;28;20107;-48
2021/07/25 07:34:55;;;;;;;18.90;10.82;;;;;;;;;;5054007;28;20048;-47
2021/07/25 07:37:21;;;;;;;14.60;9.65;;;;;;;;;;5063785;28;20071;-48
2021/07/25 07:39:47;;;;;;;18.88;10.20;;;;;;;;;;5068696;28;20024;-48
2021/07/25 07:42:13;;;;;;;14.10;9.55;;;;;;;;;;5087843;28;20025;-48
2021/07/25 07:44:39;;;;;;;13.65;10.45;;;;;;;;;;5064591;28;20411;-48
2021/07/25 07:47:06;;;;;;;17.17;9.80;;;;;;;;;;5072555;28;20107;-47
2021/07/25 07:49:32;;;;;;;12.88;9.38;;;;;;;;;;5084068;28;20027;-47
2021/07/25 07:51:58;;;;;;;17.20;11.05;;;;;;;;;;5079934;28;20035;-52
2021/07/25 07:54:24;;;;;;;18.13;10.30;;;;;;;;;;5069243;28;20096;-54
2021/07/25 07:56:50;;;;;;;17.20;10.52;;;;;;;;;;5092535;28;20048;-49
2021/07/25 07:59:16;;;;;;;14.52;10.40;;;;;;;;;;5092136;28;20039;-47
2021/07/25 08:01:44;;;;;;;17.40;10.77;;;;;;;;;;5076452;28;20024;-51
2021/07/25 08:04:10;;;;;;;16.27;10.27;;;;;;;;;;5074038;28;20120;-50
2021/07/25 08:06:36;;;;;;;18.55;9.75;;;;;;;;;;5079898;28;20020;-49
2021/07/25 08:09:02;;;;;;;15.43;10.68;;;;;;;;;;5064021;28;20071;-53
2021/07/25 08:11:28;;;;;;;15.93;10.35;;;;;;;;;;5066218;28;20078;-48
2021/07/25 08:13:54;;;;;;;19.30;10.15;;;;;;;;;;5061437;28;20025;-48
2021/07/25 08:16:20;;;;;;;15.27;9.77;;;;;;;;;;5062882;28;20024;-48
2021/07/25 08:18:45;;;;;;;15.07;9.95;;;;;;;;;;5056009;28;20078;-50
2021/07/25 08:21:11;;;;;;;12.18;8.93;;;;;;;;;;5078801;28;20043;-48
2021/07/25 08:23:37;;;;;;;12.07;9.45;;;;;;;;;;5072726;28;20439;-51
2021/07/25 08:26:03;;;;;;;15.00;10.13;;;;;;;;;;5079232;28;20091;-48
2021/07/25 08:28:30;;;;;;;14.65;9.95;;;;;;;;;;5084886;28;20040;-50
2021/07/25 08:30:56;;;;;;;14.98;10.43;;;;;;;;;;5091944;28;20028;-49
2021/07/25 08:33:22;;;;;;;15.23;10.27;;;;;;;;;;5090882;28;20024;-47
2021/07/25 08:35:48;;;;;;;13.32;9.38;;;;;;;;;;5052851;28;20040;-48
2021/07/25 08:38:14;;;;;;;16.63;10.98;;;;;;;;;;5059353;28;20047;-47
2021/07/25 08:40:41;;;;;;;12.25;9.02;;;;;;;;;;5062114;28;20492;-49
2021/07/25 08:43:08;;;;;;;15.38;9.48;;;;;;;;;;5070030;28;20395;-47
2021/07/25 08:45:35;;;;;;;14.57;9.68;;;;;;;;;;5057347;28;20504;-47
2021/07/25 08:48:03;;;;;;;17.27;9.02;;;;;;;;;;5066490;28;20033;-47
2021/07/25 08:50:31;;;;;;;14.00;9.20;;;;;;;;;;5072242;28;20054;-47
2021/07/25 08:52:58;;;;;;;11.13;8.68;;;;;;;;;;5062741;28;20021;-47
2021/07/25 08:55:25;;;;;;;17.23;9.48;;;;;;;;;;5080919;28;20085;-48
2021/07/25 08:57:52;;;;;;;13.05;8.23;;;;;;;;;;5090287;28;20107;-47
2021/07/25 09:00:19;;;;;;;14.43;8.63;;;;;;;;;;5070324;28;20119;-48
2021/07/25 09:02:48;;;;;;;13.35;9.10;;;;;;;;;;5067093;28;20051;-47
2021/07/25 09:05:14;;;;;;;16.50;9.60;;;;;;;;;;5065969;28;20099;-50
2021/07/25 09:07:41;;;;;;;13.32;9.50;;;;;;;;;;5077700;28;20103;-49
2021/07/25 09:10:11;;;;;;;13.45;9.48;;;;;;;;;;5068706;28;20383;-51
2021/07/25 09:12:38;;;;;;;12.30;8.95;;;;;;;;;;5065814;28;20492;-50
2021/07/25 09:15:08;;;;;;;13.63;8.52;;;;;;;;;;5065967;28;20028;-51
2021/07/25 09:17:34;;;;;;;17.50;9.80;;;;;;;;;;5081195;28;20119;-52
2021/07/25 09:20:19;;;;;;;15.35;9.10;;;;;;;;;;5063663;28;20029;-47
2021/07/25 09:22:48;;;;;;;14.10;9.57;;;;;;;;;;5069551;28;20105;-50
2021/07/25 09:25:14;;;;;;;16.50;10.55;;;;;;;;;;5073898;28;20021;-50
2021/07/25 09:27:40;;;;;;;13.23;9.10;;;;;;;;;;5070601;28;20025;-49
2021/07/25 09:30:16;;;;;;;11.15;8.65;;;;;;;;;;5083348;28;20571;-48
2021/07/25 09:32:42;;;;;;;12.57;9.38;;;;;;;;;;5091612;28;20027;-47
2021/07/25 09:35:22;;;;;;;14.88;9.00;;;;;;;;;;5072107;28;20021;-50
2021/07/25 09:37:49;;;;;;;15.25;9.63;;;;;;;;;;5051464;28;20037;-48
2021/07/25 09:40:16;;;;;;;13.45;9.63;;;;;;;;;;5085415;28;20024;-49
2021/07/25 09:42:42;;;;;;;14.32;9.80;;;;;;;;;;5080285;28;20039;-47
2021/07/25 09:45:09;;;;;;;15.40;9.48;;;;;;;;;;5074387;28;20028;-47
2021/07/25 09:47:39;;;;;;;14.55;9.57;;;;;;;;;;5075411;28;20111;-47
2021/07/25 09:50:06;;;;;;;15.18;9.02;;;;;;;;;;5080510;28;20051;-49
2021/07/25 09:52:33;;;;;;;13.38;9.70;;;;;;;;;;5095328;28;20019;-47
2021/07/25 09:55:00;;;;;;;12.60;9.40;;;;;;;;;;5079043;28;20037;-48
2021/07/25 09:57:26;;;;;;;12.15;9.32;;;;;;;;;;5081366;28;20028;-51
2021/07/25 09:59:56;;;;;;;13.50;9.90;;;;;;;;;;5086407;28;20043;-49
2021/07/25 10:02:49;;;;;;;15.77;9.40;;;;;;;;;;5073643;28;20043;-47
2021/07/25 10:05:19;;;;;;;11.68;8.90;;;;;;;;;;5068172;28;20376;-49
2021/07/25 10:07:49;;;;;;;15.38;9.85;;;;;;;;;;5071913;28;20119;-48
2021/07/25 10:10:16;;;;;;;11.63;8.55;;;;;;;;;;5088870;28;20049;-53
2021/07/25 10:12:43;;;;;;;16.70;8.98;;;;;;;;;;5079091;28;20028;-53
2021/07/25 10:15:10;;;;;;;11.18;9.18;;;;;;;;;;5072083;28;20020;-52
2021/07/25 10:17:38;;;;;;;13.45;8.25;;;;;;;;;;5078232;28;20111;-53
2021/07/25 10:20:05;;;;;;;14.88;9.30;;;;;;;;;;5077862;28;20055;-49
2021/07/25 10:22:32;;;;;;;13.93;9.15;;;;;;;;;;5081427;28;20047;-48
2021/07/25 10:24:59;;;;;;;13.48;10.15;;;;;;;;;;5086247;28;20028;-48
2021/07/25 10:27:26;;;;;;;15.60;9.77;;;;;;;;;;5089124;28;20017;-51
2021/07/25 10:29:55;;;;;;;13.43;9.55;;;;;;;;;;5077823;28;20154;-47
2021/07/25 10:32:22;;;;;;;11.70;9.07;;;;;;;;;;5075476;28;20039;-49
2021/07/25 10:34:49;;;;;;;11.68;8.95;;;;;;;;;;5062911;28;20036;-48
2021/07/25 10:37:15;;;;;;;14.07;9.15;;;;;;;;;;5092169;28;20024;-47
2021/07/25 10:39:45;;;;;;;13.65;8.55;;;;;;;;;;5093712;28;20024;-48
2021/07/25 10:42:12;;;;;;;13.63;8.48;;;;;;;;;;5081798;28;20077;-47
2021/07/25 10:44:42;;;;;;;14.55;9.20;;;;;;;;;;5083241;28;20043;-50
2021/07/25 10:47:17;;;;;;;13.38;8.75;;;;;;;;;;5071799;28;20028;-49
2021/07/25 10:49:43;;;;;;;12.82;8.38;;;;;;;;;;5087406;28;20103;-48
2021/07/25 10:52:09;;;;;;;18.33;9.57;;;;;;;;;;5093868;28;20031;-48
2021/07/25 10:54:45;;;;;;;13.05;8.95;;;;;;;;;;5066723;28;20446;-52
2021/07/25 10:57:11;;;;;;;15.20;8.60;;;;;;;;;;5071537;28;20127;-47
2021/07/25 10:59:41;;;;;;;13.77;9.02;;;;;;;;;;5078830;28;20082;-48
2021/07/25 11:02:12;;;;;;;11.85;8.32;;;;;;;;;;5080169;28;20613;-47
2021/07/25 11:04:51;;;;;;;13.23;9.18;;;;;;;;;;5084092;28;20033;-51
2021/07/25 11:07:23;;;;;;;16.00;9.05;;;;;;;;;;5087108;28;20360;-48
2021/07/25 11:09:59;;;;;;;13.10;9.25;;;;;;;;;;5074371;28;20076;-48
2021/07/25 11:12:25;;;;;;;12.90;9.02;;;;;;;;;;5079429;28;20042;-53
2021/07/25 11:14:58;;;;;;;11.10;8.35;;;;;;;;;;5062756;28;20090;-53
2021/07/25 11:17:42;;;;;;;12.07;9.47;;;;;;;;;;5065750;28;20434;-50
2021/07/25 11:20:08;;;;;;;12.65;8.35;;;;;;;;;;5085476;28;20032;-47
2021/07/25 11:22:44;;;;;;;11.63;8.60;;;;;;;;;;5086794;28;20108;-47
2021/07/25 11:25:10;;;;;;;17.85;8.43;;;;;;;;;;5082716;28;20055;-48
2021/07/25 11:27:45;;;;;;;14.25;9.25;;;;;;;;;;5092840;28;20448;-49
2021/07/25 11:30:11;;;;;;;11.85;8.27;;;;;;;;;;5087442;28;20032;-49
2021/07/25 11:32:37;;;;;;;15.60;9.30;;;;;;;;;;5072677;28;20452;-49
2021/07/25 11:35:04;;;;;;;11.00;8.45;;;;;;;;;;5065820;28;20068;-48
2021/07/25 11:37:40;;;;;;;11.52;8.45;;;;;;;;;;5092120;28;20421;-48
2021/07/25 11:40:09;;;;;;;15.60;9.80;;;;;;;;;;5065980;28;20041;-48
2021/07/25 11:42:36;;;;;;;11.13;8.10;;;;;;;;;;5080862;28;20439;-49
2021/07/25 11:45:03;;;;;;;14.45;9.27;;;;;;;;;;5075663;28;20050;-50
2021/07/25 11:47:29;;;;;;;12.68;8.80;;;;;;;;;;5071634;28;20395;-48
2021/07/25 11:49:55;;;;;;;14.90;8.38;;;;;;;;;;5057286;28;20767;-54
2021/07/25 11:52:24;;;;;;;12.00;9.13;;;;;;;;;;5073267;28;20056;-54
2021/07/25 11:54:50;;;;;;;11.30;8.63;;;;;;;;;;5089685;28;20024;-54
2021/07/25 11:57:17;;;;;;;15.80;8.93;;;;;;;;;;5092479;28;20031;-54
2021/07/25 11:59:46;;;;;;;14.27;7.85;;;;;;;;;;5089478;28;20417;-47
2021/07/25 12:02:12;;;;;;;13.00;8.57;;;;;;;;;;5053970;28;20128;-48
2021/07/25 12:04:45;;;;;;;10.32;8.20;;;;;;;;;;5089653;28;20032;-48
2021/07/25 12:07:15;;;;;;;14.52;8.63;;;;;;;;;;5089248;28;20519;-51
2021/07/25 12:09:51;;;;;;;12.80;8.13;;;;;;;;;;5070430;28;20080;-48
2021/07/25 12:12:22;;;;;;;12.43;8.90;;;;;;;;;;5080106;28;20024;-48
2021/07/25 12:14:49;;;;;;;10.40;7.82;;;;;;;;;;5061412;28;20028;-48
2021/07/25 12:17:33;;;;;;;12.57;8.55;;;;;;;;;;5070530;28;20032;-51
2021/07/25 12:20:08;;;;;;;12.93;8.65;;;;;;;;;;5081097;28;20099;-48
2021/07/25 12:22:34;;;;;;;14.85;8.52;;;;;;;;;;5081152;28;20028;-48
2021/07/25 12:25:05;;;;;;;10.45;8.10;;;;;;;;;;5081904;28;20033;-47
2021/07/25 12:27:32;;;;;;;12.65;8.95;;;;;;;;;;5084643;28;20032;-48
2021/07/25 12:30:14;;;;;;;12.63;8.88;;;;;;;;;;5090853;28;20096;-49
2021/07/25 12:32:41;;;;;;;10.75;7.95;;;;;;;;;;5073077;28;20484;-47
2021/07/25 12:35:13;;;;;;;13.75;8.10;;;;;;;;;;5064339;28;20064;-48
2021/07/25 12:37:46;;;;;;;12.07;9.10;;;;;;;;;;5087545;28;20035;-48
2021/07/25 12:40:14;;;;;;;16.42;8.77;;;;;;;;;;5091006;28;20027;-48
2021/07/25 12:42:59;;;;;;;13.77;8.57;;;;;;;;;;5061956;28;20055;-47
2021/07/25 12:45:35;;;;;;;14.27;8.57;;;;;;;;;;5063764;28;20035;-49
2021/07/25 12:48:15;;;;;;;12.50;8.77;;;;;;;;;;5081397;28;20032;-47
2021/07/25 12:50:45;;;;;;;12.48;8.32;;;;;;;;;;5087950;28;20024;-48
2021/07/25 12:53:17;;;;;;;13.05;8.50;;;;;;;;;;5089489;28;20594;-48
2021/07/25 12:55:50;;;;;;;11.05;8.60;;;;;;;;;;5079327;28;20127;-47
2021/07/25 12:58:16;;;;;;;12.45;7.93;;;;;;;;;;5091336;28;20038;-47
2021/07/25 13:01:19;;;;;;;10.93;7.50;;;;;;;;;;5091774;28;20035;-49
2021/07/25 13:03:44;;;;;;;10.20;7.38;;;;;;;;;;5087393;28;20039;-50
2021/07/25 13:06:11;;;;;;;10.60;7.90;;;;;;;;;;5083988;28;20077;-48
2021/07/25 13:08:37;;;;;;;11.18;7.28;;;;;;;;;;5078506;28;20029;-48
2021/07/25 13:11:03;;;;;;;10.23;7.45;;;;;;;;;;5073824;28;20381;-50
2021/07/25 13:13:30;;;;;;;12.00;8.15;;;;;;;;;;5079978;28;20107;-48
2021/07/25 13:15:56;;;;;;;10.88;7.47;;;;;;;;;;5074688;28;20030;-52
2021/07/25 13:18:22;;;;;;;14.52;6.72;;;;;;;;;;5073501;28;20032;-48
2021/07/25 13:20:48;;;;;;;13.05;6.82;;;;;;;;;;5084754;28;20093;-50
2021/07/25 13:23:14;;;;;;;13.55;6.72;;;;;;;;;;5067716;28;20119;-49
2021/07/25 13:25:40;;;;;;;10.75;6.38;;;;;;;;;;5093419;28;20032;-48
2021/07/25 13:28:06;;;;;;;7.78;5.47;;;;;;;;;;5095085;28;20016;-52
2021/07/25 13:30:32;;;;;;;8.73;6.00;;;;;;;;;;5072061;28;20035;-51
2021/07/25 13:32:58;;;;;;;7.40;5.50;;;;;;;;;;5061440;28;20104;-53
2021/07/25 13:35:24;;;;;;;7.68;5.30;;;;;;;;;;5069678;28;20028;-48
2021/07/25 13:37:50;;;;;;;6.85;4.68;;;;;;;;;;5061259;28;20025;-49
2021/07/25 13:40:16;;;;;;;7.18;5.18;;;;;;;;;;5088710;28;20028;-49
2021/07/25 13:42:42;;;;;;;6.50;4.85;;;;;;;;;;5080509;28;20397;-49
2021/07/25 13:45:11;;;;;;;7.53;5.30;;;;;;;;;;5065115;28;20170;-52
2021/07/25 13:47:38;;;;;;;7.68;4.88;;;;;;;;;;5071893;28;20028;-55
2021/07/25 13:50:05;;;;;;;9.32;5.05;;;;;;;;;;5079491;28;20032;-49
2021/07/25 13:52:31;;;;;;;9.60;4.90;;;;;;;;;;5069951;28;20063;-48
2021/07/25 13:54:57;;;;;;;6.43;5.22;;;;;;;;;;5073975;28;20048;-49
2021/07/25 13:57:23;;;;;;;6.05;4.97;;;;;;;;;;5066363;28;20183;-48
2021/07/25 13:59:49;;;;;;;7.55;5.10;;;;;;;;;;5066486;28;20044;-48
2021/07/25 14:02:15;;;;;;;5.07;4.47;;;;;;;;;;5084524;28;20081;-49
2021/07/25 14:04:41;;;;;;;7.47;5.00;;;;;;;;;;5094640;28;20028;-49
2021/07/25 14:07:07;;;;;;;6.95;5.47;;;;;;;;;;5084259;28;20039;-50
2021/07/25 14:09:33;;;;;;;7.43;5.38;;;;;;;;;;5064524;28;20040;-48
2021/07/25 14:11:59;;;;;;;8.98;5.32;;;;;;;;;;5059824;28;20036;-49
2021/07/25 14:14:25;;;;;;;7.70;5.57;;;;;;;;;;5070242;28;20089;-51
2021/07/25 14:16:51;;;;;;;8.45;5.15;;;;;;;;;;5073967;28;20056;-48
2021/07/25 14:19:18;;;;;;;8.63;5.50;;;;;;;;;;5081764;28;20127;-51
2021/07/25 14:21:47;;;;;;;8.93;5.53;;;;;;;;;;5073614;28;20024;-51
2021/07/25 14:24:13;;;;;;;5.30;4.70;;;;;;;;;;5087670;28;20031;-52
2021/07/25 14:26:39;;;;;;;7.68;5.55;;;;;;;;;;5094376;28;20032;-49
2021/07/25 14:29:04;;;;;;;7.22;5.32;;;;;;;;;;5093829;28;20028;-50